sensor_id;sensor_type;location;lat;lon;timestamp;P1;durP1;ratioP1;P2;durP2;ratioP2
77166;SDS011;66141;7.324;79.980;2023-02-22T00:00:03;6.28;;;4.50;;
77166;SDS011;66141;7.324;79.980;2023-02-22T00:00:23;6.82;;;4.35;;
77166;SDS011;66141;7.324;79.980;2023-02-22T00:00:40;6.06;;;3.58;;
77166;SDS011;66141;7.324;79.980;2023-02-22T00:00:50;5.10;;;3.24;;
77166;SDS011;66141;7.324;79.980;2023-02-22T00:00:57;6.07;;;3.33;;
77166;SDS011;66141;7.324;79.980;2023-02-22T00:01:22;6.43;;;3.80;;
77166;SDS011;66141;7.324;79.980;2023-02-22T00:01:54;6.31;;;3.95;;
77166;SDS011;66141;7.324;79.980;2023-02-22T00:02:15;5.35;;;3.74;;
77166;SDS011;66141;7.324;79.980;2023-02-22T00:02:31;5.38;;;3.74;;
77166;SDS011;66141;7.324;79.980;2023-02-22T00:02:38;5.40;;;4.00;;
77166;SDS011;66141;7.324;79.980;2023-02-22T00:02:50;5.70;;;4.03;;
77166;SDS011;66141;7.324;79.980;2023-02-22T00:02:55;6.14;;;3.99;;
77166;SDS011;66141;7.324;79.980;2023-02-22T00:03:04;6.50;;;3.90;;
77166;SDS011;66141;7.324;79.980;2023-02-22T00:03:20;7.13;;;4.50;;
77166;SDS011;66141;7.324;79.980;2023-02-22T00:03:29;6.97;;;4.35;;
77166;SDS011;66141;7.324;79.980;2023-02-22T00:03:36;6.27;;;4.00;;
77166;SDS011;66141;7.324;79.980;2023-02-22T00:03:43;6.18;;;3.64;;
77166;SDS011;66141;7.324;79.980;2023-02-22T00:03:52;6.10;;;3.74;;
77166;SDS011;66141;7.324;79.980;2023-02-22T00:03:58;6.93;;;4.40;;
77166;SDS011;66141;7.324;79.980;2023-02-22T00:04:04;7.17;;;4.60;;
77166;SDS011;66141;7.324;79.980;2023-02-22T00:04:10;7.04;;;4.66;;
77166;SDS011;66141;7.324;79.980;2023-02-22T00:04:16;7.00;;;4.70;;
77166;SDS011;66141;7.324;79.980;2023-02-22T00:04:25;6.64;;;4.67;;
77166;SDS011;66141;7.324;79.980;2023-02-22T00:04:32;6.60;;;4.42;;
77166;SDS011;66141;7.324;79.980;2023-02-22T00:04:39;6.57;;;4.50;;
77166;SDS011;66141;7.324;79.980;2023-02-22T00:04:45;6.50;;;4.45;;
77166;SDS011;66141;7.324;79.980;2023-02-22T00:04:51;7.00;;;4.40;;
77166;SDS011;66141;7.324;79.980;2023-02-22T00:04:57;6.70;;;4.22;;
77166;SDS011;66141;7.324;79.980;2023-02-22T00:05:03;6.72;;;4.30;;
77166;SDS011;66141;7.324;79.980;2023-02-22T00:05:09;7.00;;;4.33;;
77166;SDS011;66141;7.324;79.980;2023-02-22T00:05:15;7.32;;;4.45;;
77166;SDS011;66141;7.324;79.980;2023-02-22T00:05:25;7.04;;;4.53;;
77166;SDS011;66141;7.324;79.980;2023-02-22T00:05:31;6.68;;;4.48;;
77166;SDS011;66141;7.324;79.980;2023-02-22T00:05:36;6.53;;;4.38;;
77166;SDS011;66141;7.324;79.980;2023-02-22T00:05:53;5.43;;;3.90;;
77166;SDS011;66141;7.324;79.980;2023-02-22T00:06:00;4.87;;;3.47;;
77166;SDS011;66141;7.324;79.980;2023-02-22T00:06:14;5.00;;;3.66;;
77166;SDS011;66141;7.324;79.980;2023-02-22T00:06:20;5.18;;;3.68;;
77166;SDS011;66141;7.324;79.980;2023-02-22T00:06:29;5.57;;;3.83;;
77166;SDS011;66141;7.324;79.980;2023-02-22T00:06:35;5.60;;;3.73;;
77166;SDS011;66141;7.324;79.980;2023-02-22T00:06:40;5.90;;;3.75;;
77166;SDS011;66141;7.324;79.980;2023-02-22T00:06:46;5.80;;;3.73;;
77166;SDS011;66141;7.324;79.980;2023-02-22T00:06:53;5.83;;;3.97;;
77166;SDS011;66141;7.324;79.980;2023-02-22T00:06:58;6.60;;;3.97;;
77166;SDS011;66141;7.324;79.980;2023-02-22T00:07:05;6.90;;;3.92;;
77166;SDS011;66141;7.324;79.980;2023-02-22T00:07:11;7.03;;;3.85;;
77166;SDS011;66141;7.324;79.980;2023-02-22T00:07:19;7.15;;;3.98;;
77166;SDS011;66141;7.324;79.980;2023-02-22T00:07:25;6.65;;;3.97;;
77166;SDS011;66141;7.324;79.980;2023-02-22T00:07:31;6.07;;;3.90;;
77166;SDS011;66141;7.324;79.980;2023-02-22T00:07:37;5.93;;;4.00;;
77166;SDS011;66141;7.324;79.980;2023-02-22T00:07:43;6.50;;;4.22;;
77166;SDS011;66141;7.324;79.980;2023-02-22T00:07:49;7.07;;;4.15;;
77166;SDS011;66141;7.324;79.980;2023-02-22T00:07:55;7.27;;;4.17;;
77166;SDS011;66141;7.324;79.980;2023-02-22T00:08:01;7.83;;;4.17;;
77166;SDS011;66141;7.324;79.980;2023-02-22T00:08:06;8.27;;;4.10;;
77166;SDS011;66141;7.324;79.980;2023-02-22T00:08:14;7.62;;;3.77;;
77166;SDS011;66141;7.324;79.980;2023-02-22T00:08:21;6.97;;;3.58;;
77166;SDS011;66141;7.324;79.980;2023-02-22T00:08:28;6.56;;;3.34;;
77166;SDS011;66141;7.324;79.980;2023-02-22T00:08:35;5.53;;;3.10;;
77166;SDS011;66141;7.324;79.980;2023-02-22T00:08:41;4.57;;;2.88;;
77166;SDS011;66141;7.324;79.980;2023-02-22T00:08:47;6.03;;;3.05;;
77166;SDS011;66141;7.324;79.980;2023-02-22T00:08:53;6.07;;;3.13;;
77166;SDS011;66141;7.324;79.980;2023-02-22T00:08:59;6.00;;;3.15;;
77166;SDS011;66141;7.324;79.980;2023-02-22T00:09:06;6.72;;;3.42;;
77166;SDS011;66141;7.324;79.980;2023-02-22T00:09:13;7.17;;;3.80;;
77166;SDS011;66141;7.324;79.980;2023-02-22T00:09:24;6.52;;;3.88;;
77166;SDS011;66141;7.324;79.980;2023-02-22T00:09:30;7.53;;;4.23;;
77166;SDS011;66141;7.324;79.980;2023-02-22T00:09:35;7.72;;;4.28;;
77166;SDS011;66141;7.324;79.980;2023-02-22T00:09:41;8.38;;;4.18;;
77166;SDS011;66141;7.324;79.980;2023-02-22T00:09:47;8.40;;;4.03;;
77166;SDS011;66141;7.324;79.980;2023-02-22T00:09:53;8.67;;;4.13;;
77166;SDS011;66141;7.324;79.980;2023-02-22T00:09:59;9.00;;;4.03;;
77166;SDS011;66141;7.324;79.980;2023-02-22T00:10:05;8.95;;;4.07;;
77166;SDS011;66141;7.324;79.980;2023-02-22T00:10:17;8.15;;;4.01;;
77166;SDS011;66141;7.324;79.980;2023-02-22T00:10:26;7.49;;;4.00;;
77166;SDS011;66141;7.324;79.980;2023-02-22T00:10:31;6.50;;;3.95;;
77166;SDS011;66141;7.324;79.980;2023-02-22T00:10:37;6.70;;;4.00;;
77166;SDS011;66141;7.324;79.980;2023-02-22T00:10:43;6.03;;;3.83;;
77166;SDS011;66141;7.324;79.980;2023-02-22T00:10:49;5.78;;;3.80;;
77166;SDS011;66141;7.324;79.980;2023-02-22T00:10:58;5.57;;;3.87;;
77166;SDS011;66141;7.324;79.980;2023-02-22T00:11:05;4.90;;;3.80;;
77166;SDS011;66141;7.324;79.980;2023-02-22T00:11:13;5.00;;;4.13;;
77166;SDS011;66141;7.324;79.980;2023-02-22T00:11:19;5.33;;;4.20;;
77166;SDS011;66141;7.324;79.980;2023-02-22T00:11:25;5.72;;;4.28;;
77166;SDS011;66141;7.324;79.980;2023-02-22T00:11:30;5.93;;;4.17;;
77166;SDS011;66141;7.324;79.980;2023-02-22T00:11:36;6.03;;;4.18;;
77166;SDS011;66141;7.324;79.980;2023-02-22T00:11:46;6.28;;;4.03;;
77166;SDS011;66141;7.324;79.980;2023-02-22T00:11:52;5.73;;;3.67;;
77166;SDS011;66141;7.324;79.980;2023-02-22T00:11:57;5.80;;;3.60;;
77166;SDS011;66141;7.324;79.980;2023-02-22T00:12:03;5.75;;;3.60;;
77166;SDS011;66141;7.324;79.980;2023-02-22T00:12:08;6.33;;;3.77;;
77166;SDS011;66141;7.324;79.980;2023-02-22T00:12:14;6.53;;;3.85;;
77166;SDS011;66141;7.324;79.980;2023-02-22T00:12:20;6.82;;;4.15;;
77166;SDS011;66141;7.324;79.980;2023-02-22T00:12:25;6.63;;;4.10;;
77166;SDS011;66141;7.324;79.980;2023-02-22T00:12:33;6.68;;;4.23;;
77166;SDS011;66141;7.324;79.980;2023-02-22T00:12:40;6.20;;;4.20;;
77166;SDS011;66141;7.324;79.980;2023-02-22T00:12:46;5.94;;;4.14;;
77166;SDS011;66141;7.324;79.980;2023-02-22T00:12:53;5.60;;;3.88;;
77166;SDS011;66141;7.324;79.980;2023-02-22T00:12:59;5.77;;;3.97;;
77166;SDS011;66141;7.324;79.980;2023-02-22T00:13:06;5.53;;;3.97;;
77166;SDS011;66141;7.324;79.980;2023-02-22T00:13:13;6.10;;;3.90;;
77166;SDS011;66141;7.324;79.980;2023-02-22T00:13:19;6.10;;;4.05;;
77166;SDS011;66141;7.324;79.980;2023-02-22T00:13:27;6.70;;;4.28;;
77166;SDS011;66141;7.324;79.980;2023-02-22T00:13:33;6.64;;;4.20;;
77166;SDS011;66141;7.324;79.980;2023-02-22T00:13:39;5.80;;;4.00;;
77166;SDS011;66141;7.324;79.980;2023-02-22T00:13:49;6.06;;;3.94;;
77166;SDS011;66141;7.324;79.980;2023-02-22T00:13:54;6.00;;;3.92;;
77166;SDS011;66141;7.324;79.980;2023-02-22T00:14:03;6.29;;;4.04;;
77166;SDS011;66141;7.324;79.980;2023-02-22T00:14:09;6.43;;;4.13;;
77166;SDS011;66141;7.324;79.980;2023-02-22T00:14:15;6.63;;;4.30;;
77166;SDS011;66141;7.324;79.980;2023-02-22T00:14:24;6.83;;;4.36;;
77166;SDS011;66141;7.324;79.980;2023-02-22T00:14:32;7.40;;;4.57;;
77166;SDS011;66141;7.324;79.980;2023-02-22T00:14:38;7.68;;;4.82;;
77166;SDS011;66141;7.324;79.980;2023-02-22T00:14:44;8.07;;;4.90;;
77166;SDS011;66141;7.324;79.980;2023-02-22T00:14:50;8.17;;;4.93;;
77166;SDS011;66141;7.324;79.980;2023-02-22T00:14:55;8.07;;;4.95;;
77166;SDS011;66141;7.324;79.980;2023-02-22T00:15:01;7.30;;;4.87;;
77166;SDS011;66141;7.324;79.980;2023-02-22T00:15:07;7.03;;;4.68;;
77166;SDS011;66141;7.324;79.980;2023-02-22T00:15:13;6.72;;;4.30;;
77166;SDS011;66141;7.324;79.980;2023-02-22T00:15:20;6.67;;;4.33;;
77166;SDS011;66141;7.324;79.980;2023-02-22T00:15:27;6.34;;;4.18;;
77166;SDS011;66141;7.324;79.980;2023-02-22T00:15:32;6.10;;;4.00;;
77166;SDS011;66141;7.324;79.980;2023-02-22T00:15:38;6.07;;;3.80;;
77166;SDS011;66141;7.324;79.980;2023-02-22T00:15:48;5.44;;;3.74;;
77166;SDS011;66141;7.324;79.980;2023-02-22T00:15:54;4.95;;;3.33;;
77166;SDS011;66141;7.324;79.980;2023-02-22T00:16:00;5.38;;;3.58;;
77166;SDS011;66141;7.324;79.980;2023-02-22T00:16:06;5.80;;;3.83;;
77166;SDS011;66141;7.324;79.980;2023-02-22T00:16:13;6.28;;;4.05;;
77166;SDS011;66141;7.324;79.980;2023-02-22T00:16:20;6.40;;;4.07;;
77166;SDS011;66141;7.324;79.980;2023-02-22T00:16:26;6.46;;;4.26;;
77166;SDS011;66141;7.324;79.980;2023-02-22T00:16:31;6.77;;;4.23;;
77166;SDS011;66141;7.324;79.980;2023-02-22T00:16:37;6.35;;;4.13;;
77166;SDS011;66141;7.324;79.980;2023-02-22T00:16:42;6.10;;;4.03;;
77166;SDS011;66141;7.324;79.980;2023-02-22T00:16:49;6.00;;;3.98;;
77166;SDS011;66141;7.324;79.980;2023-02-22T00:16:54;5.90;;;3.83;;
77166;SDS011;66141;7.324;79.980;2023-02-22T00:17:03;5.10;;;3.50;;
77166;SDS011;66141;7.324;79.980;2023-02-22T00:17:09;5.13;;;3.55;;
77166;SDS011;66141;7.324;79.980;2023-02-22T00:17:17;5.28;;;3.55;;
77166;SDS011;66141;7.324;79.980;2023-02-22T00:17:24;5.68;;;3.74;;
77166;SDS011;66141;7.324;79.980;2023-02-22T00:17:30;5.68;;;4.00;;
77166;SDS011;66141;7.324;79.980;2023-02-22T00:17:35;6.07;;;4.20;;
77166;SDS011;66141;7.324;79.980;2023-02-22T00:17:41;6.78;;;4.20;;
77166;SDS011;66141;7.324;79.980;2023-02-22T00:17:47;6.55;;;4.20;;
77166;SDS011;66141;7.324;79.980;2023-02-22T00:17:53;6.23;;;4.13;;
77166;SDS011;66141;7.324;79.980;2023-02-22T00:17:59;6.40;;;4.05;;
77166;SDS011;66141;7.324;79.980;2023-02-22T00:18:04;6.38;;;4.13;;
77166;SDS011;66141;7.324;79.980;2023-02-22T00:18:12;5.53;;;4.03;;
77166;SDS011;66141;7.324;79.980;2023-02-22T00:18:17;7.33;;;4.20;;
77166;SDS011;66141;7.324;79.980;2023-02-22T00:18:23;8.02;;;4.18;;
77166;SDS011;66141;7.324;79.980;2023-02-22T00:18:32;7.70;;;4.07;;
77166;SDS011;66141;7.324;79.980;2023-02-22T00:18:37;7.45;;;3.88;;
77166;SDS011;66141;7.324;79.980;2023-02-22T00:18:43;7.23;;;3.77;;
77166;SDS011;66141;7.324;79.980;2023-02-22T00:18:49;5.35;;;3.65;;
77166;SDS011;66141;7.324;79.980;2023-02-22T00:18:55;4.72;;;3.53;;
77166;SDS011;66141;7.324;79.980;2023-02-22T00:19:01;5.02;;;3.72;;
77166;SDS011;66141;7.324;79.980;2023-02-22T00:19:07;5.43;;;3.88;;
77166;SDS011;66141;7.324;79.980;2023-02-22T00:19:14;5.74;;;3.98;;
77166;SDS011;66141;7.324;79.980;2023-02-22T00:19:20;6.03;;;4.20;;
77166;SDS011;66141;7.324;79.980;2023-02-22T00:19:26;6.47;;;4.38;;
77166;SDS011;66141;7.324;79.980;2023-02-22T00:19:34;6.70;;;4.29;;
77166;SDS011;66141;7.324;79.980;2023-02-22T00:19:40;6.65;;;4.43;;
77166;SDS011;66141;7.324;79.980;2023-02-22T00:19:47;6.87;;;4.57;;
77166;SDS011;66141;7.324;79.980;2023-02-22T00:19:52;6.67;;;4.37;;
77166;SDS011;66141;7.324;79.980;2023-02-22T00:19:58;6.10;;;4.10;;
77166;SDS011;66141;7.324;79.980;2023-02-22T00:20:04;5.82;;;4.05;;
77166;SDS011;66141;7.324;79.980;2023-02-22T00:20:11;5.52;;;3.78;;
77166;SDS011;66141;7.324;79.980;2023-02-22T00:20:18;5.86;;;3.40;;
77166;SDS011;66141;7.324;79.980;2023-02-22T00:20:24;6.90;;;3.67;;
77166;SDS011;66141;7.324;79.980;2023-02-22T00:20:30;6.93;;;3.85;;
77166;SDS011;66141;7.324;79.980;2023-02-22T00:20:35;7.33;;;4.00;;
77166;SDS011;66141;7.324;79.980;2023-02-22T00:20:44;7.84;;;4.34;;
77166;SDS011;66141;7.324;79.980;2023-02-22T00:20:50;6.32;;;4.43;;
77166;SDS011;66141;7.324;79.980;2023-02-22T00:20:56;6.23;;;4.27;;
77166;SDS011;66141;7.324;79.980;2023-02-22T00:21:05;6.63;;;4.30;;
77166;SDS011;66141;7.324;79.980;2023-02-22T00:21:15;6.80;;;4.47;;
77166;SDS011;66141;7.324;79.980;2023-02-22T00:21:21;7.18;;;4.72;;
77166;SDS011;66141;7.324;79.980;2023-02-22T00:21:26;7.90;;;4.90;;
77166;SDS011;66141;7.324;79.980;2023-02-22T00:21:35;7.57;;;4.74;;
77166;SDS011;66141;7.324;79.980;2023-02-22T00:21:41;8.00;;;4.70;;
77166;SDS011;66141;7.324;79.980;2023-02-22T00:21:51;9.07;;;4.67;;
77166;SDS011;66141;7.324;79.980;2023-02-22T00:21:57;9.53;;;4.81;;
77166;SDS011;66141;7.324;79.980;2023-02-22T00:22:04;10.04;;;5.18;;
77166;SDS011;66141;7.324;79.980;2023-02-22T00:22:09;9.57;;;5.33;;
77166;SDS011;66141;7.324;79.980;2023-02-22T00:22:15;9.43;;;5.25;;
77166;SDS011;66141;7.324;79.980;2023-02-22T00:22:23;8.18;;;5.22;;
77166;SDS011;66141;7.324;79.980;2023-02-22T00:22:28;7.32;;;5.13;;
77166;SDS011;66141;7.324;79.980;2023-02-22T00:22:34;7.38;;;5.00;;
77166;SDS011;66141;7.324;79.980;2023-02-22T00:22:40;7.17;;;4.87;;
77166;SDS011;66141;7.324;79.980;2023-02-22T00:22:47;7.03;;;4.80;;
77166;SDS011;66141;7.324;79.980;2023-02-22T00:22:53;7.04;;;4.80;;
77166;SDS011;66141;7.324;79.980;2023-02-22T00:22:59;6.80;;;4.60;;
77166;SDS011;66141;7.324;79.980;2023-02-22T00:23:06;6.94;;;4.66;;
77166;SDS011;66141;7.324;79.980;2023-02-22T00:23:15;7.70;;;4.85;;
77166;SDS011;66141;7.324;79.980;2023-02-22T00:23:23;8.74;;;5.32;;
77166;SDS011;66141;7.324;79.980;2023-02-22T00:23:29;8.78;;;5.40;;
77166;SDS011;66141;7.324;79.980;2023-02-22T00:23:36;8.52;;;5.32;;
77166;SDS011;66141;7.324;79.980;2023-02-22T00:23:44;7.40;;;4.67;;
77166;SDS011;66141;7.324;79.980;2023-02-22T00:23:53;6.07;;;3.81;;
77166;SDS011;66141;7.324;79.980;2023-02-22T00:23:58;6.43;;;3.88;;
77166;SDS011;66141;7.324;79.980;2023-02-22T00:24:04;6.03;;;3.85;;
77166;SDS011;66141;7.324;79.980;2023-02-22T00:24:26;6.13;;;3.80;;
77166;SDS011;66141;7.324;79.980;2023-02-22T00:24:33;5.43;;;3.53;;
77166;SDS011;66141;7.324;79.980;2023-02-22T00:24:40;5.28;;;3.80;;
77166;SDS011;66141;7.324;79.980;2023-02-22T00:24:45;6.30;;;4.15;;
77166;SDS011;66141;7.324;79.980;2023-02-22T00:24:52;6.40;;;4.07;;
77166;SDS011;66141;7.324;79.980;2023-02-22T00:24:59;6.92;;;4.10;;
77166;SDS011;66141;7.324;79.980;2023-02-22T00:25:05;7.38;;;4.30;;
77166;SDS011;66141;7.324;79.980;2023-02-22T00:25:11;7.47;;;4.13;;
77166;SDS011;66141;7.324;79.980;2023-02-22T00:25:17;6.76;;;4.04;;
77166;SDS011;66141;7.324;79.980;2023-02-22T00:25:23;7.30;;;4.37;;
77166;SDS011;66141;7.324;79.980;2023-02-22T00:25:29;7.15;;;4.35;;
77166;SDS011;66141;7.324;79.980;2023-02-22T00:25:35;6.75;;;4.32;;
77166;SDS011;66141;7.324;79.980;2023-02-22T00:25:41;6.55;;;4.43;;
77166;SDS011;66141;7.324;79.980;2023-02-22T00:25:47;6.50;;;4.40;;
77166;SDS011;66141;7.324;79.980;2023-02-22T00:25:54;6.25;;;4.38;;
77166;SDS011;66141;7.324;79.980;2023-02-22T00:25:59;5.88;;;4.38;;
77166;SDS011;66141;7.324;79.980;2023-02-22T00:26:05;5.80;;;4.38;;
77166;SDS011;66141;7.324;79.980;2023-02-22T00:26:15;6.90;;;4.57;;
77166;SDS011;66141;7.324;79.980;2023-02-22T00:26:22;7.98;;;4.85;;
77166;SDS011;66141;7.324;79.980;2023-02-22T00:26:27;8.20;;;4.80;;
77166;SDS011;66141;7.324;79.980;2023-02-22T00:26:37;8.53;;;5.00;;
77166;SDS011;66141;7.324;79.980;2023-02-22T00:26:43;7.32;;;4.80;;
77166;SDS011;66141;7.324;79.980;2023-02-22T00:26:51;6.30;;;4.57;;
77166;SDS011;66141;7.324;79.980;2023-02-22T00:26:59;5.53;;;4.37;;
77166;SDS011;66141;7.324;79.980;2023-02-22T00:27:07;5.47;;;4.20;;
77166;SDS011;66141;7.324;79.980;2023-02-22T00:27:13;5.57;;;4.07;;
77166;SDS011;66141;7.324;79.980;2023-02-22T00:27:19;5.53;;;4.03;;
77166;SDS011;66141;7.324;79.980;2023-02-22T00:27:24;5.40;;;3.97;;
77166;SDS011;66141;7.324;79.980;2023-02-22T00:27:30;5.93;;;4.18;;
77166;SDS011;66141;7.324;79.980;2023-02-22T00:27:36;6.00;;;4.23;;
77166;SDS011;66141;7.324;79.980;2023-02-22T00:27:42;5.97;;;4.30;;
77166;SDS011;66141;7.324;79.980;2023-02-22T00:27:48;6.07;;;4.37;;
77166;SDS011;66141;7.324;79.980;2023-02-22T00:27:55;6.82;;;4.23;;
77166;SDS011;66141;7.324;79.980;2023-02-22T00:28:01;6.30;;;4.10;;
77166;SDS011;66141;7.324;79.980;2023-02-22T00:28:07;5.80;;;3.87;;
77166;SDS011;66141;7.324;79.980;2023-02-22T00:28:13;5.60;;;3.83;;
77166;SDS011;66141;7.324;79.980;2023-02-22T00:28:19;5.27;;;3.70;;
77166;SDS011;66141;7.324;79.980;2023-02-22T00:28:25;5.20;;;3.95;;
77166;SDS011;66141;7.324;79.980;2023-02-22T00:28:30;5.35;;;4.00;;
77166;SDS011;66141;7.324;79.980;2023-02-22T00:28:36;5.60;;;4.10;;
77166;SDS011;66141;7.324;79.980;2023-02-22T00:28:41;6.22;;;4.25;;
77166;SDS011;66141;7.324;79.980;2023-02-22T00:28:49;6.78;;;4.53;;
77166;SDS011;66141;7.324;79.980;2023-02-22T00:28:55;6.60;;;4.43;;
77166;SDS011;66141;7.324;79.980;2023-02-22T00:29:00;7.20;;;4.68;;
77166;SDS011;66141;7.324;79.980;2023-02-22T00:29:06;7.77;;;4.87;;
77166;SDS011;66141;7.324;79.980;2023-02-22T00:29:13;8.17;;;5.10;;
77166;SDS011;66141;7.324;79.980;2023-02-22T00:29:18;7.93;;;4.95;;
77166;SDS011;66141;7.324;79.980;2023-02-22T00:29:24;7.87;;;4.90;;
77166;SDS011;66141;7.324;79.980;2023-02-22T00:29:30;7.68;;;4.82;;
77166;SDS011;66141;7.324;79.980;2023-02-22T00:29:42;6.73;;;4.37;;
77166;SDS011;66141;7.324;79.980;2023-02-22T00:29:48;6.50;;;4.40;;
77166;SDS011;66141;7.324;79.980;2023-02-22T00:29:54;7.05;;;4.63;;
77166;SDS011;66141;7.324;79.980;2023-02-22T00:30:01;6.90;;;4.55;;
77166;SDS011;66141;7.324;79.980;2023-02-22T00:30:07;7.03;;;4.83;;
77166;SDS011;66141;7.324;79.980;2023-02-22T00:30:18;6.80;;;4.57;;
77166;SDS011;66141;7.324;79.980;2023-02-22T00:30:24;6.36;;;4.28;;
77166;SDS011;66141;7.324;79.980;2023-02-22T00:30:31;6.83;;;4.07;;
77166;SDS011;66141;7.324;79.980;2023-02-22T00:30:37;6.57;;;4.23;;
77166;SDS011;66141;7.324;79.980;2023-02-22T00:30:43;6.82;;;4.57;;
77166;SDS011;66141;7.324;79.980;2023-02-22T00:30:50;7.30;;;4.80;;
77166;SDS011;66141;7.324;79.980;2023-02-22T00:30:55;7.13;;;5.10;;
77166;SDS011;66141;7.324;79.980;2023-02-22T00:31:02;7.55;;;5.28;;
77166;SDS011;66141;7.324;79.980;2023-02-22T00:31:09;7.47;;;4.67;;
77166;SDS011;66141;7.324;79.980;2023-02-22T00:31:15;7.65;;;4.60;;
77166;SDS011;66141;7.324;79.980;2023-02-22T00:31:21;7.13;;;4.40;;
77166;SDS011;66141;7.324;79.980;2023-02-22T00:31:26;6.53;;;4.35;;
77166;SDS011;66141;7.324;79.980;2023-02-22T00:31:35;5.78;;;3.97;;
77166;SDS011;66141;7.324;79.980;2023-02-22T00:31:41;6.57;;;4.19;;
77166;SDS011;66141;7.324;79.980;2023-02-22T00:31:46;6.50;;;4.30;;
77166;SDS011;66141;7.324;79.980;2023-02-22T00:31:52;6.40;;;4.10;;
77166;SDS011;66141;7.324;79.980;2023-02-22T00:31:58;6.65;;;4.18;;
77166;SDS011;66141;7.324;79.980;2023-02-22T00:32:03;6.60;;;4.40;;
77166;SDS011;66141;7.324;79.980;2023-02-22T00:32:09;6.50;;;4.35;;
77166;SDS011;66141;7.324;79.980;2023-02-22T00:32:15;6.63;;;4.30;;
77166;SDS011;66141;7.324;79.980;2023-02-22T00:32:20;6.88;;;4.50;;
77166;SDS011;66141;7.324;79.980;2023-02-22T00:32:26;6.85;;;4.50;;
77166;SDS011;66141;7.324;79.980;2023-02-22T00:32:32;7.20;;;4.57;;
77166;SDS011;66141;7.324;79.980;2023-02-22T00:32:37;7.18;;;4.57;;
77166;SDS011;66141;7.324;79.980;2023-02-22T00:32:46;7.00;;;4.60;;
77166;SDS011;66141;7.324;79.980;2023-02-22T00:32:53;7.43;;;4.63;;
77166;SDS011;66141;7.324;79.980;2023-02-22T00:33:00;7.58;;;4.68;;
77166;SDS011;66141;7.324;79.980;2023-02-22T00:33:05;8.27;;;4.80;;
77166;SDS011;66141;7.324;79.980;2023-02-22T00:33:12;8.50;;;4.78;;
77166;SDS011;66141;7.324;79.980;2023-02-22T00:33:18;7.93;;;4.80;;
77166;SDS011;66141;7.324;79.980;2023-02-22T00:33:24;7.78;;;4.68;;
77166;SDS011;66141;7.324;79.980;2023-02-22T00:33:29;7.72;;;4.70;;
77166;SDS011;66141;7.324;79.980;2023-02-22T00:33:37;7.28;;;4.57;;
77166;SDS011;66141;7.324;79.980;2023-02-22T00:33:43;7.43;;;4.77;;
77166;SDS011;66141;7.324;79.980;2023-02-22T00:33:48;7.35;;;4.70;;
77166;SDS011;66141;7.324;79.980;2023-02-22T00:33:54;7.23;;;4.60;;
77166;SDS011;66141;7.324;79.980;2023-02-22T00:34:00;7.47;;;4.70;;
77166;SDS011;66141;7.324;79.980;2023-02-22T00:34:05;6.82;;;4.68;;
77166;SDS011;66141;7.324;79.980;2023-02-22T00:34:12;6.77;;;4.67;;
77166;SDS011;66141;7.324;79.980;2023-02-22T00:34:17;6.66;;;4.44;;
77166;SDS011;66141;7.324;79.980;2023-02-22T00:34:23;6.73;;;4.40;;
77166;SDS011;66141;7.324;79.980;2023-02-22T00:34:29;6.47;;;4.45;;
77166;SDS011;66141;7.324;79.980;2023-02-22T00:34:34;6.47;;;4.43;;
77166;SDS011;66141;7.324;79.980;2023-02-22T00:34:41;6.22;;;4.40;;
77166;SDS011;66141;7.324;79.980;2023-02-22T00:34:50;6.32;;;4.60;;
77166;SDS011;66141;7.324;79.980;2023-02-22T00:34:56;6.12;;;4.65;;
77166;SDS011;66141;7.324;79.980;2023-02-22T00:35:02;6.32;;;4.68;;
77166;SDS011;66141;7.324;79.980;2023-02-22T00:35:15;6.56;;;4.57;;
77166;SDS011;66141;7.324;79.980;2023-02-22T00:35:25;6.43;;;4.30;;
77166;SDS011;66141;7.324;79.980;2023-02-22T00:35:31;6.80;;;4.17;;
77166;SDS011;66141;7.324;79.980;2023-02-22T00:35:37;6.63;;;4.07;;
77166;SDS011;66141;7.324;79.980;2023-02-22T00:35:43;6.13;;;3.87;;
77166;SDS011;66141;7.324;79.980;2023-02-22T00:35:50;6.22;;;3.96;;
77166;SDS011;66141;7.324;79.980;2023-02-22T00:35:55;5.80;;;3.80;;
77166;SDS011;66141;7.324;79.980;2023-02-22T00:36:01;5.35;;;3.80;;
77166;SDS011;66141;7.324;79.980;2023-02-22T00:36:07;5.37;;;3.77;;
77166;SDS011;66141;7.324;79.980;2023-02-22T00:36:13;6.28;;;3.94;;
77166;SDS011;66141;7.324;79.980;2023-02-22T00:36:19;6.50;;;4.00;;
77166;SDS011;66141;7.324;79.980;2023-02-22T00:36:25;6.60;;;4.20;;
77166;SDS011;66141;7.324;79.980;2023-02-22T00:36:30;7.38;;;4.53;;
77166;SDS011;66141;7.324;79.980;2023-02-22T00:36:36;7.07;;;4.35;;
77166;SDS011;66141;7.324;79.980;2023-02-22T00:36:48;6.33;;;4.23;;
77166;SDS011;66141;7.324;79.980;2023-02-22T00:36:54;5.96;;;4.18;;
77166;SDS011;66141;7.324;79.980;2023-02-22T00:36:59;5.10;;;3.53;;
77166;SDS011;66141;7.324;79.980;2023-02-22T00:37:10;5.23;;;3.73;;
77166;SDS011;66141;7.324;79.980;2023-02-22T00:37:16;5.76;;;4.01;;
77166;SDS011;66141;7.324;79.980;2023-02-22T00:37:22;5.80;;;4.03;;
77166;SDS011;66141;7.324;79.980;2023-02-22T00:37:27;6.03;;;4.18;;
77166;SDS011;66141;7.324;79.980;2023-02-22T00:37:35;6.90;;;4.30;;
77166;SDS011;66141;7.324;79.980;2023-02-22T00:37:41;6.77;;;4.13;;
77166;SDS011;66141;7.324;79.980;2023-02-22T00:37:47;7.28;;;4.28;;
77166;SDS011;66141;7.324;79.980;2023-02-22T00:37:57;7.22;;;4.26;;
77166;SDS011;66141;7.324;79.980;2023-02-22T00:38:03;6.43;;;4.20;;
77166;SDS011;66141;7.324;79.980;2023-02-22T00:38:09;6.07;;;4.13;;
77166;SDS011;66141;7.324;79.980;2023-02-22T00:38:15;5.53;;;4.03;;
77166;SDS011;66141;7.324;79.980;2023-02-22T00:38:23;5.40;;;4.03;;
77166;SDS011;66141;7.324;79.980;2023-02-22T00:38:28;5.18;;;4.03;;
77166;SDS011;66141;7.324;79.980;2023-02-22T00:38:34;5.53;;;4.20;;
77166;SDS011;66141;7.324;79.980;2023-02-22T00:38:40;5.43;;;4.15;;
77166;SDS011;66141;7.324;79.980;2023-02-22T00:38:46;5.82;;;4.20;;
77166;SDS011;66141;7.324;79.980;2023-02-22T00:38:51;6.15;;;4.20;;
77166;SDS011;66141;7.324;79.980;2023-02-22T00:38:57;7.13;;;4.57;;
77166;SDS011;66141;7.324;79.980;2023-02-22T00:39:02;7.30;;;4.43;;
77166;SDS011;66141;7.324;79.980;2023-02-22T00:39:08;7.63;;;4.67;;
77166;SDS011;66141;7.324;79.980;2023-02-22T00:39:14;7.97;;;4.75;;
77166;SDS011;66141;7.324;79.980;2023-02-22T00:39:20;7.43;;;4.70;;
77166;SDS011;66141;7.324;79.980;2023-02-22T00:39:25;7.50;;;4.73;;
77166;SDS011;66141;7.324;79.980;2023-02-22T00:39:31;7.00;;;4.63;;
77166;SDS011;66141;7.324;79.980;2023-02-22T00:39:37;6.82;;;4.60;;
77166;SDS011;66141;7.324;79.980;2023-02-22T00:39:45;6.63;;;4.50;;
77166;SDS011;66141;7.324;79.980;2023-02-22T00:39:50;7.16;;;4.58;;
77166;SDS011;66141;7.324;79.980;2023-02-22T00:39:56;7.00;;;4.75;;
77166;SDS011;66141;7.324;79.980;2023-02-22T00:40:02;6.97;;;4.63;;
77166;SDS011;66141;7.324;79.980;2023-02-22T00:40:14;6.51;;;4.26;;
77166;SDS011;66141;7.324;79.980;2023-02-22T00:40:20;5.77;;;4.03;;
77166;SDS011;66141;7.324;79.980;2023-02-22T00:40:30;5.40;;;3.78;;
77166;SDS011;66141;7.324;79.980;2023-02-22T00:40:36;5.56;;;4.17;;
77166;SDS011;66141;7.324;79.980;2023-02-22T00:40:42;6.97;;;4.30;;
77166;SDS011;66141;7.324;79.980;2023-02-22T00:40:49;8.10;;;4.50;;
77166;SDS011;66141;7.324;79.980;2023-02-22T00:40:55;8.63;;;4.68;;
77166;SDS011;66141;7.324;79.980;2023-02-22T00:41:01;8.63;;;4.60;;
77166;SDS011;66141;7.324;79.980;2023-02-22T00:41:06;8.43;;;4.43;;
77166;SDS011;66141;7.324;79.980;2023-02-22T00:41:12;7.50;;;4.38;;
77166;SDS011;66141;7.324;79.980;2023-02-22T00:41:18;6.85;;;4.28;;
77166;SDS011;66141;7.324;79.980;2023-02-22T00:41:24;6.97;;;4.33;;
77166;SDS011;66141;7.324;79.980;2023-02-22T00:41:29;6.35;;;4.10;;
77166;SDS011;66141;7.324;79.980;2023-02-22T00:41:35;7.15;;;4.25;;
77166;SDS011;66141;7.324;79.980;2023-02-22T00:41:40;7.00;;;4.20;;